createdAt,value
2019-03-15T00:00:34.642Z,98059.83
2019-03-15T00:03:48.207Z,98068.66
2019-03-15T00:07:01.850Z,98067.02
2019-03-15T00:10:15.449Z,98068.27
2019-03-15T00:13:28.916Z,98077.58
2019-03-15T00:16:42.673Z,98083.30
2019-03-15T00:19:56.502Z,98098.47
2019-03-15T00:23:10.208Z,98098.08
2019-03-15T00:26:23.690Z,98099.36
2019-03-15T00:29:37.252Z,98094.77
2019-03-15T00:32:51.038Z,98095.29
2019-03-15T00:36:04.619Z,98097.48
2019-03-15T00:39:18.083Z,98099.40
2019-03-15T00:42:31.913Z,98101.17
2019-03-15T00:45:45.383Z,98108.52
2019-03-15T00:48:59.132Z,98114.63
2019-03-15T00:52:12.967Z,98111.20
2019-03-15T00:55:26.541Z,98116.69
2019-03-15T00:58:39.996Z,98113.75
2019-03-15T01:01:54.054Z,98109.77
2019-03-15T01:05:07.806Z,98108.00
2019-03-15T01:08:21.300Z,98106.95
2019-03-15T01:11:34.737Z,98102.84
2019-03-15T01:14:48.432Z,98102.44
2019-03-15T01:18:02.221Z,98106.46
2019-03-15T01:21:15.951Z,98108.33
2019-03-15T01:24:29.703Z,98112.00
2019-03-15T01:27:43.312Z,98106.89
2019-03-15T01:30:56.787Z,98105.72
2019-03-15T01:34:10.263Z,98106.34
2019-03-15T01:37:24.064Z,98110.00
2019-03-15T01:40:37.521Z,98094.82
2019-03-15T01:43:50.997Z,98095.31
2019-03-15T01:47:04.792Z,98097.34
2019-03-15T01:50:18.298Z,98095.12
2019-03-15T01:53:32.056Z,98097.80
2019-03-15T01:56:45.537Z,98105.36
2019-03-15T01:59:58.994Z,98102.55
2019-03-15T02:03:13.562Z,98096.33
2019-03-15T02:06:27.260Z,98098.13
2019-03-15T02:09:40.729Z,98094.06
2019-03-15T02:12:54.198Z,98098.91
2019-03-15T02:16:08.765Z,98084.23
2019-03-15T02:19:22.467Z,98085.77
2019-03-15T02:22:36.826Z,98081.97
2019-03-15T02:25:50.570Z,98080.17
2019-03-15T02:29:04.153Z,98077.84
2019-03-15T02:32:17.707Z,98084.22
2019-03-15T02:35:31.179Z,98077.65
2019-03-15T02:38:44.778Z,98075.09
2019-03-15T02:41:58.996Z,98074.94
2019-03-15T02:45:13.037Z,98076.60
2019-03-15T02:48:26.503Z,98081.97
2019-03-15T02:51:39.966Z,98070.81
2019-03-15T02:54:54.652Z,98073.72
2019-03-15T02:58:08.257Z,98074.97
2019-03-15T03:01:22.086Z,98071.70
2019-03-15T03:04:35.559Z,98075.78
2019-03-15T03:07:49.012Z,98077.06
2019-03-15T03:11:02.591Z,98084.29
2019-03-15T03:14:16.063Z,98073.52
2019-03-15T03:17:32.365Z,98070.13
2019-03-15T03:20:48.191Z,98072.67
2019-03-15T03:24:01.919Z,98069.56
2019-03-15T03:27:15.380Z,98072.70
2019-03-15T03:30:29.160Z,98074.55
2019-03-15T03:33:42.917Z,98077.63
2019-03-15T03:36:58.020Z,98083.56
2019-03-15T03:40:11.994Z,98089.60
2019-03-15T03:43:25.711Z,98071.99
2019-03-15T03:46:39.169Z,98070.72
2019-03-15T03:49:53.548Z,98070.89
2019-03-15T03:53:07.259Z,98075.95
2019-03-15T03:56:21.047Z,98079.78
2019-03-15T03:59:34.781Z,98086.12
2019-03-15T04:02:48.527Z,98081.28
2019-03-15T04:06:02.732Z,98086.95
2019-03-15T04:09:16.996Z,98082.23
2019-03-15T04:12:30.469Z,98079.24
2019-03-15T04:15:43.962Z,98076.95
2019-03-15T04:18:57.415Z,98082.41
2019-03-15T04:22:10.877Z,98084.58
2019-03-15T04:25:24.349Z,98084.40
2019-03-15T04:28:38.101Z,98087.87
2019-03-15T04:31:51.869Z,98084.31
2019-03-15T04:35:05.531Z,98081.28
2019-03-15T04:38:19.257Z,98077.66
2019-03-15T04:41:33.019Z,98065.02
2019-03-15T04:44:46.776Z,98067.70
2019-03-15T04:48:00.236Z,98072.34
2019-03-15T04:51:13.708Z,98061.48
2019-03-15T04:54:27.182Z,98060.56
2019-03-15T04:57:40.642Z,98061.48
2019-03-15T05:00:54.429Z,98062.59
2019-03-15T05:04:07.894Z,98066.33
2019-03-15T05:07:21.405Z,98066.73
2019-03-15T05:10:34.879Z,98063.40
2019-03-15T05:13:48.351Z,98062.39
2019-03-15T05:17:02.387Z,98061.16
2019-03-15T05:20:15.854Z,98067.89
2019-03-15T05:23:29.307Z,98068.20
2019-03-15T05:26:43.048Z,98058.97
2019-03-15T05:29:56.518Z,98057.47
2019-03-15T05:33:10.239Z,98056.55
2019-03-15T05:36:24.005Z,98050.25
2019-03-15T05:39:37.477Z,98051.66
2019-03-15T05:42:50.960Z,98049.02
2019-03-15T05:46:04.442Z,98053.81
2019-03-15T05:49:17.871Z,98051.03
2019-03-15T05:52:31.337Z,98044.66
2019-03-15T05:55:45.070Z,98047.13
2019-03-15T05:58:58.928Z,98041.63
2019-03-15T06:02:12.763Z,98041.09
2019-03-15T06:05:26.541Z,98038.02
2019-03-15T06:08:40.015Z,98037.61
2019-03-15T06:11:53.995Z,98035.99
2019-03-15T06:15:07.875Z,98038.28
2019-03-15T06:18:21.348Z,98026.87
2019-03-15T06:21:34.828Z,98021.38
2019-03-15T06:24:48.552Z,98023.01
2019-03-15T06:28:02.686Z,98022.27
2019-03-15T06:31:16.137Z,98011.87
2019-03-15T06:34:29.979Z,98014.81
2019-03-15T06:37:43.926Z,98014.02
2019-03-15T06:40:57.696Z,98013.36
2019-03-15T06:44:11.456Z,98007.58
2019-03-15T06:47:25.027Z,98004.19
2019-03-15T06:50:38.487Z,98000.19
2019-03-15T06:53:52.064Z,98003.89
2019-03-15T06:57:06.528Z,98001.94
2019-03-15T07:00:20.512Z,97995.43
2019-03-15T07:03:33.972Z,97988.85
2019-03-15T07:06:47.731Z,97990.36
2019-03-15T07:10:01.635Z,97990.02
2019-03-15T07:13:15.654Z,97984.45
2019-03-15T07:16:31.030Z,97974.25
2019-03-15T07:19:44.501Z,97979.35
2019-03-15T07:22:58.075Z,97977.27
2019-03-15T07:26:11.793Z,97982.77
2019-03-15T07:29:25.385Z,97986.38
2019-03-15T07:32:39.273Z,97966.22
2019-03-15T07:35:53.069Z,97970.05
2019-03-15T07:39:26.877Z,97953.11
2019-03-15T07:42:41.241Z,97940.83
2019-03-15T07:45:55.285Z,97936.38
2019-03-15T07:49:14.074Z,97929.99
2019-03-15T07:52:29.112Z,97927.16
2019-03-15T07:55:44.109Z,97908.87
2019-03-15T07:58:59.508Z,97911.39
2019-03-15T08:02:14.828Z,97907.04
2019-03-15T08:05:31.683Z,97906.62
2019-03-15T08:08:46.299Z,97911.50
2019-03-15T08:12:01.392Z,97907.43
2019-03-15T08:15:15.146Z,97910.55
2019-03-15T08:18:28.604Z,97896.95
2019-03-15T08:21:42.056Z,97915.86
2019-03-15T08:24:55.519Z,97902.27
2019-03-15T08:28:08.956Z,97894.34
2019-03-15T08:31:23.428Z,97909.64
2019-03-15T08:34:37.407Z,97903.53
2019-03-15T08:37:51.219Z,97903.76
2019-03-15T08:41:04.801Z,97897.59
2019-03-15T08:44:18.287Z,97908.16
2019-03-15T08:47:31.733Z,97897.66
2019-03-15T08:50:45.506Z,97897.66
2019-03-15T08:53:59.283Z,97899.47
2019-03-15T08:57:12.963Z,97897.61
2019-03-15T09:00:26.418Z,97890.52
2019-03-15T09:03:40.139Z,97886.17
2019-03-15T09:06:53.594Z,97901.87
2019-03-15T09:10:21.366Z,97894.68
2019-03-15T09:13:23.666Z,97903.27
2019-03-15T09:16:37.117Z,97890.00
2019-03-15T09:19:50.572Z,97881.17
2019-03-15T09:23:04.146Z,97894.62
2019-03-15T09:26:17.595Z,97884.74
2019-03-15T09:29:31.040Z,97885.02
2019-03-15T09:32:44.714Z,97877.53
2019-03-15T09:35:58.171Z,97877.80
2019-03-15T09:39:12.226Z,97869.42
2019-03-15T09:42:25.704Z,97886.17
2019-03-15T09:45:39.189Z,97875.63
2019-03-15T09:48:52.955Z,97882.47
2019-03-15T09:52:06.416Z,97884.63
2019-03-15T09:55:32.302Z,97875.30
2019-03-15T09:58:35.551Z,97874.09
2019-03-15T10:01:49.007Z,97871.66
2019-03-15T10:05:10.592Z,97882.73
2019-03-15T10:08:18.343Z,97875.67
2019-03-15T10:11:31.864Z,97866.22
2019-03-15T10:14:45.311Z,97860.38
2019-03-15T10:17:58.778Z,97848.88
2019-03-15T10:21:12.497Z,97862.89
2019-03-15T10:24:25.944Z,97852.79
2019-03-15T10:27:39.505Z,97867.69
2019-03-15T10:30:52.966Z,97870.66
2019-03-15T10:34:06.586Z,97875.89
2019-03-15T10:37:20.106Z,97874.22
2019-03-15T10:40:33.562Z,97885.41
2019-03-15T10:43:47.032Z,97874.83
2019-03-15T10:47:00.767Z,97887.95
2019-03-15T10:50:14.357Z,97879.52
2019-03-15T10:53:27.815Z,97881.59
2019-03-15T10:56:41.259Z,97887.89
2019-03-15T10:59:54.978Z,97883.78
2019-03-15T11:03:08.447Z,97884.59
2019-03-15T11:06:21.911Z,97884.03
2019-03-15T11:09:35.378Z,97869.88
2019-03-15T11:12:49.263Z,97884.03
2019-03-15T11:16:02.832Z,97904.62
2019-03-15T11:19:16.293Z,97895.92
2019-03-15T11:22:30.056Z,97895.06
2019-03-15T11:25:43.510Z,97885.50
2019-03-15T11:28:57.242Z,97887.25
2019-03-15T11:32:10.700Z,97889.50
2019-03-15T11:35:24.268Z,97892.23
2019-03-15T11:38:37.726Z,97898.29
2019-03-15T11:41:51.876Z,97904.13
2019-03-15T11:45:06.599Z,97901.52
2019-03-15T11:48:20.357Z,97899.38
2019-03-15T11:51:34.109Z,97903.56
2019-03-15T11:54:49.795Z,97917.49
2019-03-15T11:58:03.131Z,97916.20
2019-03-15T12:01:16.847Z,97907.36
2019-03-15T12:04:30.618Z,97903.95
2019-03-15T12:07:44.463Z,97908.34
2019-03-15T12:10:57.906Z,97920.32
2019-03-15T12:14:11.382Z,97924.52
2019-03-15T12:17:24.848Z,97923.19
2019-03-15T12:20:38.298Z,97933.59
2019-03-15T12:23:51.868Z,97937.47
2019-03-15T12:27:05.698Z,97942.63
2019-03-15T12:30:19.602Z,97966.63
2019-03-15T12:33:33.067Z,97949.53
2019-03-15T12:36:47.066Z,97941.25
2019-03-15T12:40:00.649Z,97931.27
2019-03-15T12:43:14.231Z,97940.53
2019-03-15T12:46:27.688Z,97938.43
2019-03-15T12:49:41.424Z,97946.33
2019-03-15T12:52:54.892Z,97953.10
2019-03-15T12:56:10.912Z,97943.58
2019-03-15T12:59:24.048Z,97953.42
2019-03-15T13:02:37.777Z,97962.12
2019-03-15T13:05:51.566Z,97949.86
2019-03-15T13:09:05.955Z,97977.55
2019-03-15T13:12:19.419Z,97960.09
2019-03-15T13:15:32.871Z,97967.97
2019-03-15T13:18:46.332Z,97961.28
2019-03-15T13:21:59.795Z,97952.38
2019-03-15T13:25:13.359Z,97962.71
2019-03-15T13:28:27.060Z,97969.14
2019-03-15T13:31:40.511Z,97969.83
2019-03-15T13:34:53.966Z,97958.46
2019-03-15T13:38:07.718Z,97974.67
2019-03-15T13:41:21.188Z,97952.06
2019-03-15T13:44:34.906Z,97959.31
2019-03-15T13:47:48.354Z,98000.19
2019-03-15T13:51:01.809Z,97961.89
2019-03-15T13:54:15.281Z,97951.28
2019-03-15T13:57:29.320Z,97956.14
2019-03-15T14:00:42.883Z,97982.77
2019-03-15T14:03:56.334Z,97973.66
2019-03-15T14:07:10.068Z,97975.77
2019-03-15T14:10:23.533Z,97966.26
2019-03-15T14:13:36.990Z,97961.67
2019-03-15T14:16:50.838Z,97964.72
2019-03-15T14:20:05.054Z,97951.97
2019-03-15T14:23:18.506Z,97968.16
2019-03-15T14:26:32.299Z,97993.59
2019-03-15T14:29:46.010Z,97975.89
2019-03-15T14:32:59.469Z,97971.91
2019-03-15T14:36:13.243Z,97975.64
2019-03-15T14:39:27.069Z,97998.47
2019-03-15T14:42:40.917Z,97983.19
2019-03-15T14:45:54.859Z,97978.09
2019-03-15T14:49:08.700Z,97982.27
2019-03-15T14:52:22.455Z,97974.95
2019-03-15T14:55:35.923Z,97978.81
2019-03-15T14:58:49.690Z,97980.89
2019-03-15T15:02:03.271Z,97984.69
2019-03-15T15:05:16.833Z,97992.62
2019-03-15T15:08:30.294Z,97985.72
2019-03-15T15:11:43.877Z,97985.72
2019-03-15T15:14:57.868Z,97983.93
2019-03-15T15:18:11.355Z,97979.59
2019-03-15T15:21:24.826Z,97976.36
2019-03-15T15:24:38.860Z,97977.48
2019-03-15T15:28:03.735Z,97973.13
2019-03-15T15:31:07.689Z,97971.89
2019-03-15T15:34:21.415Z,97976.31
2019-03-15T15:37:35.120Z,97985.06
2019-03-15T15:40:48.879Z,97984.23
2019-03-15T15:44:02.600Z,97979.16
2019-03-15T15:47:16.846Z,97975.13
2019-03-15T15:50:30.473Z,97983.98
2019-03-15T15:53:43.959Z,97985.59
2019-03-15T15:56:58.192Z,97997.63
2019-03-15T16:00:12.228Z,97999.87
2019-03-15T16:03:25.692Z,98002.60
2019-03-15T16:06:39.280Z,98001.31
2019-03-15T16:09:52.877Z,97992.29
2019-03-15T16:13:16.641Z,98001.16
2019-03-15T16:16:22.552Z,98018.34
2019-03-15T16:19:36.051Z,97991.27
2019-03-15T16:22:50.282Z,98000.03
2019-03-15T16:26:03.748Z,98010.83
2019-03-15T16:29:17.217Z,98000.75
2019-03-15T16:32:31.176Z,98006.16
2019-03-15T16:35:44.744Z,97982.85
2019-03-15T16:38:58.479Z,97988.05
2019-03-15T16:42:12.501Z,98015.12
2019-03-15T16:45:26.096Z,98003.70
2019-03-15T16:48:40.215Z,97999.48
2019-03-15T16:51:54.000Z,97994.43
2019-03-15T16:55:08.738Z,98010.17
2019-03-15T16:58:22.291Z,97996.33
2019-03-15T17:01:35.843Z,98000.70
2019-03-15T17:04:49.311Z,98002.39
2019-03-15T17:08:03.395Z,98007.48
2019-03-15T17:11:17.444Z,98022.81
2019-03-15T17:14:31.139Z,98022.81
2019-03-15T17:17:44.608Z,98018.91
2019-03-15T17:20:58.061Z,98027.48
2019-03-15T17:24:11.807Z,98034.17
2019-03-15T17:27:25.255Z,98032.81
2019-03-15T17:30:38.837Z,98040.70
2019-03-15T17:33:52.324Z,98028.80
2019-03-15T17:37:07.077Z,98036.00
2019-03-15T17:40:20.910Z,98031.56
2019-03-15T17:43:34.379Z,98042.26
2019-03-15T17:46:48.391Z,98024.63
2019-03-15T17:50:02.286Z,98030.98
2019-03-15T17:53:15.916Z,98014.95
2019-03-15T17:56:29.374Z,98022.83
2019-03-15T18:00:03.278Z,98023.67
2019-03-15T18:03:21.319Z,98024.29
2019-03-15T18:06:32.620Z,98031.33
2019-03-15T18:09:46.085Z,98036.84
2019-03-15T18:13:00.085Z,98030.24
2019-03-15T18:16:13.542Z,98042.49
2019-03-15T18:19:27.016Z,98045.06
2019-03-15T18:22:40.474Z,98060.83
2019-03-15T18:25:54.052Z,98063.07
2019-03-15T18:29:07.604Z,98076.98
2019-03-15T18:32:21.474Z,98051.83
2019-03-15T18:35:35.224Z,98062.12
2019-03-15T18:38:48.686Z,98068.38
2019-03-15T18:42:02.170Z,98059.89
2019-03-15T18:45:16.030Z,98063.41
2019-03-15T18:48:29.464Z,98063.91
2019-03-15T18:51:43.030Z,98063.30
2019-03-15T18:54:56.510Z,98066.18
2019-03-15T18:58:09.968Z,98071.94
2019-03-15T19:01:23.693Z,98070.34
2019-03-15T19:04:37.137Z,98088.98
2019-03-15T19:07:50.596Z,98084.52
2019-03-15T19:11:04.159Z,98099.00
2019-03-15T19:14:17.644Z,98087.63
2019-03-15T19:17:31.563Z,98086.92
2019-03-15T19:20:45.374Z,98095.34
2019-03-15T19:23:59.177Z,98093.45
2019-03-15T19:27:13.020Z,98105.86
2019-03-15T19:30:26.455Z,98102.11
2019-03-15T19:33:39.986Z,98117.86
2019-03-15T19:36:53.658Z,98126.45
2019-03-15T19:40:08.851Z,98134.16
2019-03-15T19:43:22.640Z,98131.95
2019-03-15T19:46:36.160Z,98139.66
2019-03-15T19:49:49.614Z,98151.59
2019-03-15T19:53:03.358Z,98145.57
2019-03-15T19:56:17.142Z,98143.81
2019-03-15T19:59:30.592Z,98157.44
2019-03-15T20:02:44.170Z,98151.82
2019-03-15T20:05:57.935Z,98160.94
2019-03-15T20:09:11.401Z,98154.52
2019-03-15T20:12:25.243Z,98150.44
2019-03-15T20:15:38.693Z,98155.98
2019-03-15T20:18:52.186Z,98160.72
2019-03-15T20:22:05.991Z,98166.16
2019-03-15T20:25:19.742Z,98163.30
2019-03-15T20:28:33.205Z,98171.00
2019-03-15T20:31:46.923Z,98178.52
2019-03-15T20:35:00.671Z,98187.23
2019-03-15T20:38:14.140Z,98190.79
2019-03-15T20:41:27.867Z,98187.42
2019-03-15T20:44:41.329Z,98197.11
2019-03-15T20:47:54.791Z,98201.16
2019-03-15T20:51:08.262Z,98204.42
2019-03-15T20:54:21.784Z,98194.84
2019-03-15T20:57:35.743Z,98212.42
2019-03-15T21:00:49.286Z,98210.84
2019-03-15T21:04:02.873Z,98194.94
2019-03-15T21:07:16.651Z,98198.80
2019-03-15T21:10:30.526Z,98204.82
2019-03-15T21:13:44.184Z,98197.80
2019-03-15T21:16:58.235Z,98208.78
2019-03-15T21:20:12.115Z,98205.98
2019-03-15T21:23:25.582Z,98219.94
2019-03-15T21:26:39.036Z,98227.25
2019-03-15T21:29:52.599Z,98231.11
2019-03-15T21:33:06.165Z,98236.06
2019-03-15T21:36:19.630Z,98229.12
2019-03-15T21:39:33.213Z,98235.55
2019-03-15T21:42:46.799Z,98241.68
2019-03-15T21:46:00.253Z,98234.96
2019-03-15T21:49:13.711Z,98240.28
2019-03-15T21:52:27.494Z,98231.20
2019-03-15T21:55:41.240Z,98240.87
2019-03-15T21:58:54.721Z,98237.92
2019-03-15T22:02:08.167Z,98230.00
2019-03-15T22:05:21.880Z,98233.85
2019-03-15T22:08:35.350Z,98228.42
2019-03-15T22:11:48.801Z,98231.51
2019-03-15T22:15:02.694Z,98235.95
2019-03-15T22:18:16.376Z,98241.20
2019-03-15T22:21:29.840Z,98239.81
2019-03-15T22:24:43.704Z,98245.42
2019-03-15T22:27:57.265Z,98252.55
2019-03-15T22:31:16.484Z,98255.52
2019-03-15T22:34:26.370Z,98258.68
2019-03-15T22:37:40.195Z,98245.83
2019-03-15T22:40:53.755Z,98261.83
2019-03-15T22:44:07.234Z,98257.20
2019-03-15T22:47:20.928Z,98263.92
2019-03-15T22:50:34.390Z,98268.55
2019-03-15T22:53:47.841Z,98264.00
2019-03-15T22:57:01.578Z,98263.92
2019-03-15T23:00:15.358Z,98264.00
2019-03-15T23:03:28.995Z,98278.47
2019-03-15T23:06:42.459Z,98276.89
2019-03-15T23:09:55.905Z,98285.19
2019-03-15T23:13:09.615Z,98274.39
2019-03-15T23:16:23.092Z,98278.14
2019-03-15T23:19:36.818Z,98279.24
2019-03-15T23:22:50.575Z,98269.95
2019-03-15T23:26:04.302Z,98280.94
2019-03-15T23:29:17.778Z,98277.66
2019-03-15T23:32:31.236Z,98267.67
2019-03-15T23:35:53.955Z,98267.78
2019-03-15T23:39:00.050Z,98268.48
2019-03-15T23:42:13.859Z,98272.13
2019-03-15T23:45:27.313Z,98264.04
2019-03-15T23:48:41.079Z,98276.48
2019-03-15T23:51:54.530Z,98275.68
2019-03-15T23:55:08.181Z,98277.19
2019-03-15T23:58:21.874Z,98265.80
